Time;durP1;ratioP1;P1;durP2;ratioP2;P2;SDS_P1;SDS_P2;PMS_P1;PMS_P2;Temp;Humidity;BMP_temperature;BMP_pressure;BME280_temperature;BME280_humidity;BME280_pressure;Samples;Min_cycle;Max_cycle;Signal;HPM_P1;HPM_P2
2023/03/30 00:00:37;;;;;;;6.97;1.70;;;;;;;-142.75;100.00;76113.63;5012204;28;20038;-68
2023/03/30 00:03:03;;;;;;;11.15;2.33;;;;;;;-142.75;100.00;76115.59;5012115;28;20055;-67
2023/03/30 00:05:28;;;;;;;4.88;1.40;;;;;;;-142.75;100.00;76113.63;5019060;28;20112;-68
2023/03/30 00:07:54;;;;;;;6.32;1.90;;;;;;;-142.75;100.00;76119.53;5029575;28;20516;-68
2023/03/30 00:10:20;;;;;;;6.72;1.90;;;;;;;-142.75;100.00;76105.75;5024760;28;20056;-68
2023/03/30 00:12:49;;;;;;;7.03;1.80;;;;;;;-142.75;100.00;76101.81;5012001;28;20552;-68
2023/03/30 00:15:17;;;;;;;5.25;1.75;;;;;;;-142.75;100.00;76113.63;5021650;28;20025;-68
2023/03/30 00:17:44;;;;;;;3.70;1.42;;;;;;;-142.75;100.00;76123.47;5022975;28;20109;-68
2023/03/30 00:20:11;;;;;;;3.53;1.67;;;;;;;-142.75;100.00;76123.47;5028391;28;20084;-68
2023/03/30 00:22:40;;;;;;;5.15;1.75;;;;;;;-142.75;100.00;76143.16;5030229;28;20520;-68
2023/03/30 00:25:09;;;;;;;3.20;1.80;;;;;;;-142.75;100.00;76129.38;5028456;28;20109;-66
2023/03/30 00:27:35;;;;;;;2.38;1.35;;;;;;;-142.75;100.00;76137.25;5012065;28;20021;-68
2023/03/30 00:30:01;;;;;;;6.28;1.77;;;;;;;-142.75;100.00;76172.69;5011997;28;20477;-67
2023/03/30 00:32:27;;;;;;;3.83;1.70;;;;;;;-142.75;100.00;76149.06;5012682;28;20051;-67
2023/03/30 00:34:52;;;;;;;3.47;1.50;;;;;;;-142.75;100.00;76156.94;5031227;28;20098;-68
2023/03/30 00:37:18;;;;;;;3.47;1.63;;;;;;;-142.75;100.00;76160.88;5028757;28;20534;-67
2023/03/30 00:39:44;;;;;;;4.40;1.42;;;;;;;-142.75;100.00;76143.16;5029244;28;20072;-68
2023/03/30 00:42:15;;;;;;;4.93;1.80;;;;;;;-142.75;100.00;76156.94;5029182;28;20504;-66
2023/03/30 00:45:15;;;;;;;3.80;1.60;;;;;;;-142.75;100.00;76149.06;5016698;28;20025;-69
2023/03/30 00:47:46;;;;;;;5.72;1.50;;;;;;;-142.75;100.00;76151.03;5031633;28;20013;-66
2023/03/30 00:50:13;;;;;;;3.55;1.48;;;;;;;-142.75;100.00;76149.06;5030206;28;20032;-67
2023/03/30 00:52:40;;;;;;;2.92;1.10;;;;;;;-142.75;100.00;76156.94;5031530;28;20082;-68
2023/03/30 00:55:08;;;;;;;2.38;1.30;;;;;;;-142.75;100.00;76143.16;5028633;28;20056;-68
2023/03/30 00:57:39;;;;;;;5.20;1.17;;;;;;;-142.75;100.00;76147.09;5022621;28;20026;-68
2023/03/30 01:00:09;;;;;;;3.35;1.42;;;;;;;-142.75;100.00;76160.88;5011981;28;20038;-67
2023/03/30 01:02:39;;;;;;;7.95;2.00;;;;;;;-142.75;100.00;76156.94;5025824;28;20032;-67
2023/03/30 01:05:05;;;;;;;3.83;1.27;;;;;;;-142.75;100.00;76168.75;5015637;28;20033;-68
2023/03/30 01:07:31;;;;;;;3.85;1.48;;;;;;;-142.75;100.00;76188.44;5033211;28;20036;-68
2023/03/30 01:09:58;;;;;;;5.85;1.80;;;;;;;-142.75;100.00;76180.56;5033432;28;20488;-68
2023/03/30 01:12:24;;;;;;;5.72;1.85;;;;;;;-142.75;100.00;76190.41;5020387;28;20033;-68
2023/03/30 01:14:50;;;;;;;4.75;1.60;;;;;;;-142.75;100.00;76184.50;5014706;28;20033;-68
2023/03/30 01:17:30;;;;;;;4.03;1.80;;;;;;;-142.75;100.00;76176.63;5016415;28;20022;-67
2023/03/30 01:20:34;;;;;;;3.55;1.67;;;;;;;-142.75;100.00;76176.63;5016596;28;20053;-68
2023/03/30 01:23:09;;;;;;;7.40;2.00;;;;;;;-142.75;100.00;76180.56;5015352;28;20034;-67
2023/03/30 01:25:56;;;;;;;7.10;2.10;;;;;;;-142.75;100.00;76164.81;5026937;28;20033;-68
2023/03/30 01:28:37;;;;;;;4.20;2.58;;;;;;;-142.75;100.00;76149.06;5017510;28;20097;-68
2023/03/30 01:31:24;;;;;;;8.18;1.95;;;;;;;-142.75;100.00;76172.69;5014237;28;20030;-68
2023/03/30 01:34:27;;;;;;;5.93;1.83;;;;;;;-142.75;100.00;76182.53;5033090;28;20481;-68
2023/03/30 01:37:29;;;;;;;7.18;1.85;;;;;;;-142.75;100.00;76164.81;5032873;28;20034;-68
2023/03/30 01:40:18;;;;;;;3.20;1.75;;;;;;;-142.75;100.00;76176.63;5034526;28;20500;-68
2023/03/30 01:42:49;;;;;;;5.35;1.95;;;;;;;-142.75;100.00;76180.56;5011380;28;20143;-66
2023/03/30 01:45:41;;;;;;;4.88;1.55;;;;;;;-142.75;100.00;76170.72;5014143;28;20033;-67
2023/03/30 01:48:13;;;;;;;4.55;1.63;;;;;;;-142.75;100.00;76182.53;5022782;28;20029;-68
2023/03/30 01:50:42;;;;;;;4.20;1.77;;;;;;;-142.75;100.00;76174.66;5032484;28;20416;-67
2023/03/30 01:53:17;;;;;;;4.35;1.90;;;;;;;-142.75;100.00;76186.47;5031204;28;20117;-67
2023/03/30 01:55:54;;;;;;;6.05;1.75;;;;;;;-142.75;100.00;76184.50;5021888;28;20036;-68
2023/03/30 01:58:31;;;;;;;5.78;1.40;;;;;;;-142.75;100.00;76192.38;5031610;28;20497;-68
2023/03/30 02:01:00;;;;;;;9.07;1.98;;;;;;;-142.75;100.00;76196.31;5023673;28;20084;-68
2023/03/30 02:03:31;;;;;;;6.32;1.75;;;;;;;-142.75;100.00;76217.94;5013356;28;20029;-68
2023/03/30 02:06:14;;;;;;;4.65;1.40;;;;;;;-142.75;100.00;76208.09;5020394;28;20036;-67
2023/03/30 02:08:41;;;;;;;4.07;1.58;;;;;;;-142.75;100.00;76212.03;5031965;28;20543;-67
2023/03/30 02:11:07;;;;;;;7.97;1.65;;;;;;;-142.75;100.00;76217.94;5023858;28;20112;-65
2023/03/30 02:13:36;;;;;;;5.95;2.33;;;;;;;-142.75;100.00;76215.97;5020463;28;20120;-68
2023/03/30 02:16:11;;;;;;;8.48;2.40;;;;;;;-142.75;100.00;76212.03;5029213;28;20061;-66
2023/03/30 02:18:38;;;;;;;5.00;2.45;;;;;;;-142.75;100.00;76215.97;5033575;28;20033;-66
2023/03/30 02:21:04;;;;;;;6.38;1.90;;;;;;;-142.75;100.00;76215.97;5025851;28;20025;-67
2023/03/30 02:23:36;;;;;;;4.45;2.05;;;;;;;-142.75;100.00;76208.09;5018045;28;20120;-68
2023/03/30 02:26:02;;;;;;;6.13;1.48;;;;;;;-142.75;100.00;76204.16;5030556;28;20061;-67
2023/03/30 02:28:27;;;;;;;3.38;1.30;;;;;;;-142.75;100.00;76204.16;5012280;28;20028;-67
2023/03/30 02:30:52;;;;;;;5.18;1.85;;;;;;;-142.75;100.00;76180.56;5015138;28;20028;-68
2023/03/30 02:33:43;;;;;;;6.72;1.40;;;;;;;-142.75;100.00;76172.69;5013103;28;20026;-66
2023/03/30 02:36:26;;;;;;;4.57;1.30;;;;;;;-142.75;100.00;76184.50;5017230;28;20429;-68
2023/03/30 02:39:06;;;;;;;7.68;1.60;;;;;;;-142.75;100.00;76182.53;5028953;28;20026;-68
2023/03/30 02:41:51;;;;;;;8.32;1.80;;;;;;;-142.75;100.00;76188.44;5017282;28;20392;-67
2023/03/30 02:44:22;;;;;;;3.85;1.23;;;;;;;-142.75;100.00;76170.72;5031834;28;20029;-67
2023/03/30 02:47:11;;;;;;;4.40;1.70;;;;;;;-142.75;100.00;76170.72;5031555;28;20100;-68
2023/03/30 02:50:09;;;;;;;2.60;1.42;;;;;;;-142.75;100.00;76162.84;5033244;28;20029;-68
2023/03/30 02:52:47;;;;;;;8.45;1.65;;;;;;;-142.75;100.00;76164.81;5033311;28;20025;-68
2023/03/30 02:55:21;;;;;;;3.33;1.48;;;;;;;-142.75;100.00;76164.81;5033035;28;20021;-65
2023/03/30 02:58:02;;;;;;;3.88;1.30;;;;;;;-142.75;100.00;76176.63;5033013;28;20053;-68
2023/03/30 03:00:38;;;;;;;6.78;1.60;;;;;;;-142.75;100.00;76182.53;5031776;28;20026;-68
2023/03/30 03:03:07;;;;;;;;;;;;;;;-142.75;100.00;76180.56;5033547;28;20025;-67
2023/03/30 03:05:34;;;;;;;3.45;1.10;;;;;;;-142.75;100.00;76188.44;5031568;28;19924;-68
2023/03/30 03:07:59;;;;;;;9.13;1.90;;;;;;;-142.75;100.00;76188.44;5031556;28;20020;-67
2023/03/30 03:10:25;;;;;;;4.10;1.27;;;;;;;-142.75;100.00;76178.59;5032895;28;20100;-67
2023/03/30 03:12:50;;;;;;;4.72;1.27;;;;;;;-142.75;100.00;76168.75;5031448;28;20400;-68
2023/03/30 03:15:15;;;;;;;6.35;1.15;;;;;;;-142.75;100.00;76164.81;5031416;28;20071;-68
2023/03/30 03:17:44;;;;;;;2.15;0.70;;;;;;;-142.75;100.00;76154.97;5020319;28;20503;-67
2023/03/30 03:20:10;;;;;;;5.18;1.20;;;;;;;-142.75;100.00;76145.13;5025705;28;20514;-68
2023/03/30 03:22:36;;;;;;;6.22;1.15;;;;;;;-142.75;100.00;76147.09;5012983;28;20026;-67
2023/03/30 03:25:01;;;;;;;4.43;1.08;;;;;;;-142.75;100.00;76147.09;5013021;28;20056;-67
2023/03/30 03:27:27;;;;;;;4.38;0.98;;;;;;;-142.75;100.00;76147.09;5015564;28;20045;-66
2023/03/30 03:29:52;;;;;;;5.45;1.10;;;;;;;-142.75;100.00;76133.31;5014992;28;20036;-68
2023/03/30 03:32:18;;;;;;;7.63;1.08;;;;;;;-142.75;100.00;76121.50;5015399;28;20030;-68
2023/03/30 03:34:44;;;;;;;6.30;1.33;;;;;;;-142.75;100.00;76121.50;5015433;28;20030;-67
2023/03/30 03:37:10;;;;;;;6.53;1.23;;;;;;;-142.75;100.00;76125.44;5014175;28;20083;-68
2023/03/30 03:39:36;;;;;;;3.80;1.08;;;;;;;-142.75;100.00;76123.47;5014444;28;20179;-68
2023/03/30 03:42:03;;;;;;;4.93;1.00;;;;;;;-142.75;100.00;76121.50;5012857;28;20053;-68
2023/03/30 03:44:28;;;;;;;5.40;1.02;;;;;;;-142.75;100.00;76139.22;5012750;28;20067;-66
2023/03/30 03:46:53;;;;;;;8.15;1.52;;;;;;;-142.75;100.00;76117.56;5020891;28;20017;-69
2023/03/30 03:49:19;;;;;;;4.15;1.10;;;;;;;-142.75;100.00;76121.50;5032147;28;20477;-68
2023/03/30 03:51:44;;;;;;;10.18;1.70;;;;;;;-142.75;100.00;76135.28;5029875;28;20029;-68
2023/03/30 03:54:09;;;;;;;7.47;1.40;;;;;;;-142.75;100.00;76133.31;5030406;28;20031;-68
2023/03/30 03:56:37;;;;;;;13.48;1.55;;;;;;;-142.75;100.00;76129.38;5029591;28;20022;-68
2023/03/30 03:59:03;;;;;;;7.85;1.30;;;;;;;-142.75;100.00;76135.28;5017350;28;20036;-68
2023/03/30 04:01:29;;;;;;;7.18;1.38;;;;;;;-142.75;100.00;76127.41;5015636;28;20018;-67
2023/03/30 04:03:55;;;;;;;7.10;1.40;;;;;;;-142.75;100.00;76139.22;5032060;28;20035;-68
2023/03/30 04:06:20;;;;;;;6.97;1.38;;;;;;;-142.75;100.00;76139.22;5031884;28;20024;-68
2023/03/30 04:08:45;;;;;;;7.88;1.58;;;;;;;-142.75;100.00;76121.50;5031825;28;20040;-68
2023/03/30 04:11:11;;;;;;;10.00;1.73;;;;;;;-142.75;100.00;76141.19;5030305;28;20385;-68
2023/03/30 04:13:40;;;;;;;6.57;1.10;;;;;;;-142.75;100.00;76135.28;5030525;28;20018;-66
2023/03/30 04:16:06;;;;;;;7.53;1.65;;;;;;;-142.75;100.00;76151.03;5028643;28;20033;-66
2023/03/30 04:18:33;;;;;;;10.75;2.28;;;;;;;-142.75;100.00;76162.84;5031754;28;20038;-68
2023/03/30 04:21:01;;;;;;;5.70;1.58;;;;;;;-142.75;100.00;76168.75;5030288;28;20029;-67
2023/03/30 04:23:30;;;;;;;7.10;1.23;;;;;;;-142.75;100.00;76156.94;5026337;28;20061;-66
2023/03/30 04:26:06;;;;;;;10.63;1.40;;;;;;;-142.75;100.00;76160.88;5016399;28;20025;-68
2023/03/30 04:28:33;;;;;;;9.40;2.25;;;;;;;-142.75;100.00;76160.88;5012175;28;20541;-67
2023/03/30 04:31:04;;;;;;;17.67;2.28;;;;;;;-142.75;100.00;76158.91;5020370;28;20517;-67
2023/03/30 04:33:33;;;;;;;9.25;2.53;;;;;;;-142.75;100.00;76156.94;5019695;28;20033;-68
2023/03/30 04:35:59;;;;;;;10.52;2.00;;;;;;;-142.75;100.00;76166.78;5010022;28;20160;-67
2023/03/30 04:38:24;;;;;;;10.27;2.08;;;;;;;-142.75;100.00;76168.75;5027883;28;20037;-68
2023/03/30 04:40:51;;;;;;;15.63;2.47;;;;;;;-142.75;100.00;76149.06;5032615;28;20029;-68
2023/03/30 04:43:18;;;;;;;16.27;1.85;;;;;;;-142.75;100.00;76164.81;5026850;28;20506;-68
2023/03/30 04:45:49;;;;;;;14.15;2.22;;;;;;;-142.75;100.00;76139.22;5029812;28;20045;-68
2023/03/30 04:48:15;;;;;;;13.48;2.85;;;;;;;-142.75;100.00;76156.94;5031758;28;20029;-68
2023/03/30 04:50:40;;;;;;;12.25;2.15;;;;;;;-142.75;100.00;76168.75;5023042;28;20021;-68
2023/03/30 04:53:06;;;;;;;11.48;2.33;;;;;;;-142.75;100.00;76172.69;5030399;28;20541;-68
2023/03/30 04:55:31;;;;;;;14.07;2.13;;;;;;;-142.75;100.00;76176.63;5014688;28;20021;-68
2023/03/30 04:57:56;;;;;;;14.20;2.45;;;;;;;-142.75;100.00;76176.63;5013953;28;20117;-68
2023/03/30 05:00:22;;;;;;;14.60;1.92;;;;;;;-142.75;100.00;76200.25;5026555;28;20063;-67
2023/03/30 05:02:47;;;;;;;14.02;2.25;;;;;;;-142.75;100.00;76196.31;5020619;28;20021;-68
2023/03/30 05:05:12;;;;;;;10.00;2.10;;;;;;;-142.75;100.00;76202.19;5033357;28;20025;-68
2023/03/30 05:07:38;;;;;;;14.32;2.00;;;;;;;-142.75;100.00;76188.44;5031036;28;20026;-67
2023/03/30 05:10:03;;;;;;;17.33;1.88;;;;;;;-142.75;100.00;76186.47;5033065;28;20029;-68
2023/03/30 05:12:29;;;;;;;14.93;2.40;;;;;;;-142.75;100.00;76202.19;5018083;28;20030;-67
2023/03/30 05:14:54;;;;;;;17.15;2.63;;;;;;;-142.75;100.00;76215.97;5029174;28;20035;-68
2023/03/30 05:17:19;;;;;;;16.20;2.05;;;;;;;-142.75;100.00;76212.03;5033357;28;20079;-66
2023/03/30 05:19:45;;;;;;;14.25;2.30;;;;;;;-142.75;100.00;76235.66;5030353;28;20037;-67
2023/03/30 05:22:11;;;;;;;14.57;2.63;;;;;;;-142.75;100.00;76221.88;5034748;28;20029;-68
2023/03/30 05:24:36;;;;;;;17.42;2.78;;;;;;;-142.75;100.00;76239.59;5033144;28;20025;-67
2023/03/30 05:27:01;;;;;;;15.00;2.80;;;;;;;-142.75;100.00;76243.53;5033356;28;20108;-68
2023/03/30 05:29:27;;;;;;;14.05;2.05;;;;;;;-142.75;100.00;76237.63;5026828;28;20105;-67
2023/03/30 05:31:52;;;;;;;14.85;2.72;;;;;;;-142.75;100.00;76251.41;5018387;28;20025;-68
2023/03/30 05:34:17;;;;;;;16.83;2.35;;;;;;;-142.75;100.00;76249.44;5033167;28;20021;-67
2023/03/30 05:36:43;;;;;;;13.77;2.20;;;;;;;-142.75;100.00;76251.41;5029765;28;20833;-67
2023/03/30 05:39:08;;;;;;;24.52;3.22;;;;;;;-142.75;100.00;76247.47;5029866;28;20515;-66
2023/03/30 05:41:33;;;;;;;24.05;2.92;;;;;;;-142.75;100.00;76251.41;5021749;28;20024;-68
2023/03/30 05:43:58;;;;;;;17.30;3.45;;;;;;;-142.75;100.00;76263.22;5014665;28;20026;-67
2023/03/30 05:46:24;;;;;;;18.40;2.72;;;;;;;-142.75;100.00;76271.09;5013131;28;20159;-68
2023/03/30 05:48:50;;;;;;;10.52;2.20;;;;;;;-142.75;100.00;76277.00;5013266;28;20108;-67
2023/03/30 05:51:15;;;;;;;8.90;1.73;;;;;;;-142.75;100.00;76278.97;5020524;28;20013;-68
2023/03/30 05:53:40;;;;;;;15.73;2.95;;;;;;;-142.75;100.00;76275.03;5032920;28;20493;-68
2023/03/30 05:56:06;;;;;;;17.52;2.97;;;;;;;-142.75;100.00;76267.16;5032847;28;20021;-67
2023/03/30 05:58:32;;;;;;;19.30;3.15;;;;;;;-142.75;100.00;76269.13;5031144;28;20025;-68
2023/03/30 06:00:58;;;;;;;18.17;2.45;;;;;;;-142.75;100.00;76271.09;5024354;28;20136;-68
2023/03/30 06:03:23;;;;;;;14.57;3.10;;;;;;;-142.75;100.00;76261.25;5014303;28;20030;-68
2023/03/30 06:05:51;;;;;;;19.05;2.58;;;;;;;-142.75;100.00;76255.34;5031968;28;20033;-68
2023/03/30 06:08:17;;;;;;;18.25;2.65;;;;;;;-142.75;100.00;76255.34;5032756;28;20436;-68
2023/03/30 06:10:54;;;;;;;11.23;2.50;;;;;;;-142.75;100.00;76253.38;5031474;28;20048;-65
2023/03/30 06:13:20;;;;;;;20.98;2.25;;;;;;;-142.75;100.00;76271.09;5033789;28;20096;-68
2023/03/30 06:15:46;;;;;;;19.10;2.78;;;;;;;-142.75;100.00;76265.19;5018428;28;20105;-68
2023/03/30 06:18:11;;;;;;;15.70;2.80;;;;;;;-142.75;100.00;76259.28;5017538;28;20053;-67
2023/03/30 06:20:37;;;;;;;20.92;3.00;;;;;;;-142.75;100.00;76261.25;5032504;28;20026;-67
2023/03/30 06:23:02;;;;;;;17.67;2.83;;;;;;;-142.75;100.00;76255.34;5027554;28;20021;-68
2023/03/30 06:25:28;;;;;;;14.82;2.35;;;;;;;-142.75;100.00;76237.63;5013794;28;20026;-68
2023/03/30 06:27:54;;;;;;;12.27;2.20;;;;;;;-142.75;100.00;76215.97;5013306;28;20059;-66
2023/03/30 06:30:20;;;;;;;18.25;2.70;;;;;;;-142.75;100.00;76227.78;5029525;28;20381;-67
2023/03/30 06:32:45;;;;;;;21.55;2.70;;;;;;;-142.75;100.00;76231.72;5031146;28;20021;-67
2023/03/30 06:35:12;;;;;;;16.95;2.80;;;;;;;-142.75;100.00;76257.31;5032992;28;20512;-67
2023/03/30 06:37:38;;;;;;;13.90;2.92;;;;;;;-142.75;100.00;76259.28;5030730;28;20017;-65
2023/03/30 06:40:12;;;;;;;8.43;1.83;;;;;;;-142.75;100.00;76263.22;5030581;28;20396;-66
2023/03/30 06:42:42;;;;;;;13.95;2.45;;;;;;;-142.75;100.00;76271.09;5030904;28;20071;-68
2023/03/30 06:45:09;;;;;;;23.20;3.85;;;;;;;-142.75;100.00;76286.84;5031302;28;20572;-66
2023/03/30 06:47:35;;;;;;;14.32;3.00;;;;;;;-142.75;100.00;76286.84;5029989;28;20485;-67
2023/03/30 06:50:00;;;;;;;13.32;2.40;;;;;;;-142.75;100.00;76284.88;5031208;28;20547;-66
2023/03/30 06:52:26;;;;;;;16.77;2.47;;;;;;;-142.75;100.00;76286.84;5032603;28;20025;-68
2023/03/30 06:54:51;;;;;;;13.15;3.05;;;;;;;-142.75;100.00;76280.94;5028935;28;20408;-69
2023/03/30 06:57:16;;;;;;;19.15;2.92;;;;;;;-142.75;100.00;76280.94;5032373;28;20557;-66
2023/03/30 06:59:42;;;;;;;27.13;3.38;;;;;;;-142.75;100.00;76282.91;5031668;28;20029;-69
2023/03/30 07:02:13;;;;;;;16.08;2.83;;;;;;;-142.75;100.00;76282.91;5030706;28;20029;-69
2023/03/30 07:04:39;;;;;;;19.08;3.05;;;;;;;-142.75;100.00;76290.78;5031529;28;20025;-69
2023/03/30 07:07:04;;;;;;;23.50;3.15;;;;;;;-142.75;100.00;76277.00;5032911;28;20017;-69
2023/03/30 07:09:29;;;;;;;15.82;2.70;;;;;;;-142.75;100.00;76253.38;5032943;28;20037;-69
2023/03/30 07:11:55;;;;;;;19.90;2.58;;;;;;;-142.75;100.00;76257.31;5031162;28;20025;-69
2023/03/30 07:14:20;;;;;;;18.52;3.53;;;;;;;-142.75;100.00;76247.47;5032524;28;20098;-68
2023/03/30 07:16:47;;;;;;;22.45;2.83;;;;;;;-142.75;100.00;76247.47;5032469;28;20018;-69
2023/03/30 07:19:12;;;;;;;18.35;2.28;;;;;;;-142.75;100.00;76265.19;5032717;28;20025;-65
2023/03/30 07:21:38;;;;;;;18.38;3.42;;;;;;;-142.75;100.00;76261.25;5032459;28;20052;-69
2023/03/30 07:24:03;;;;;;;19.95;2.90;;;;;;;-142.75;100.00;76269.13;5032543;28;20026;-70
2023/03/30 07:26:29;;;;;;;21.42;2.72;;;;;;;-142.75;100.00;76253.38;5032261;28;20024;-69
2023/03/30 07:28:56;;;;;;;19.60;2.55;;;;;;;-142.75;100.00;76263.22;5032320;28;20036;-69
2023/03/30 07:31:23;;;;;;;20.00;3.40;;;;;;;-142.75;100.00;76275.03;5032081;28;20021;-67
2023/03/30 07:33:48;;;;;;;18.60;2.65;;;;;;;-142.75;100.00;76265.19;5032505;28;20033;-66
2023/03/30 07:36:14;;;;;;;25.25;3.58;;;;;;;-142.75;100.00;76273.06;5031285;28;20435;-68
2023/03/30 07:38:40;;;;;;;21.95;3.95;;;;;;;-142.75;100.00;76278.97;5029554;28;20025;-68
2023/03/30 07:41:07;;;;;;;16.25;2.72;;;;;;;-142.75;100.00;76271.09;5029814;28;20028;-67
2023/03/30 07:43:33;;;;;;;15.77;3.03;;;;;;;-142.75;100.00;76294.72;5030161;28;20048;-69
2023/03/30 07:45:58;;;;;;;24.95;2.95;;;;;;;-142.75;100.00;76282.91;5031342;28;20100;-68
2023/03/30 07:48:23;;;;;;;27.60;3.58;;;;;;;-142.75;100.00;76288.81;5029263;28;20116;-68
2023/03/30 07:50:50;;;;;;;22.17;3.20;;;;;;;-142.75;100.00;76284.88;5031805;28;20081;-69
2023/03/30 07:53:15;;;;;;;19.45;3.20;;;;;;;-142.75;100.00;76271.09;5031702;28;20509;-68
2023/03/30 07:55:41;;;;;;;19.38;2.65;;;;;;;-142.75;100.00;76288.81;5029138;28;20041;-69
2023/03/30 07:58:06;;;;;;;22.55;3.45;;;;;;;-142.75;100.00;76290.78;5031831;28;20045;-67
2023/03/30 08:00:32;;;;;;;19.38;2.53;;;;;;;-142.75;100.00;76282.91;5031587;28;20040;-69
2023/03/30 08:02:58;;;;;;;12.93;2.60;;;;;;;-142.75;100.00;76294.72;5030109;28;20115;-69
2023/03/30 08:05:23;;;;;;;18.90;2.65;;;;;;;-142.75;100.00;76284.88;5031320;28;20433;-69
2023/03/30 08:07:49;;;;;;;20.35;2.75;;;;;;;-142.75;100.00;76263.22;5031539;28;20022;-67
2023/03/30 08:10:14;;;;;;;19.10;2.45;;;;;;;-142.75;100.00;76243.53;5031238;28;20025;-69
2023/03/30 08:12:40;;;;;;;18.98;2.33;;;;;;;-142.75;100.00;76249.44;5024182;28;20030;-69
2023/03/30 08:15:06;;;;;;;16.15;3.00;;;;;;;-142.75;100.00;76263.22;5023457;28;20026;-69
2023/03/30 08:17:31;;;;;;;26.27;3.83;;;;;;;-142.75;100.00;76247.47;5029621;28;20411;-69
2023/03/30 08:19:56;;;;;;;18.90;3.72;;;;;;;-142.75;100.00;76221.88;5030987;28;20108;-69
2023/03/30 08:22:22;;;;;;;23.58;3.53;;;;;;;-142.75;100.00;76249.44;5030745;28;20076;-65
2023/03/30 08:24:47;;;;;;;24.80;3.45;;;;;;;-142.75;100.00;76241.56;5030852;28;20026;-68
2023/03/30 08:27:13;;;;;;;22.17;3.28;;;;;;;-142.75;100.00;76204.16;5028346;28;20091;-69
2023/03/30 08:29:40;;;;;;;25.23;3.63;;;;;;;-142.75;100.00;76196.31;5026426;28;20061;-68
2023/03/30 08:32:06;;;;;;;33.40;3.63;;;;;;;-142.75;100.00;76180.56;5024428;28;20048;-69
2023/03/30 08:34:32;;;;;;;20.27;2.72;;;;;;;-142.75;100.00;76133.31;5023171;28;20053;-68
2023/03/30 08:36:57;;;;;;;17.35;3.08;;;;;;;-142.75;100.00;76129.38;5023391;28;20013;-68
2023/03/30 08:39:23;;;;;;;24.90;3.75;;;;;;;-142.75;100.00;76097.88;5029183;28;20381;-67
2023/03/30 08:41:48;;;;;;;16.52;2.92;;;;;;;-142.75;100.00;76127.41;5019070;28;20425;-69
2023/03/30 08:44:26;;;;;;;14.15;2.92;;;;;;;-142.75;100.00;76074.25;5023216;28;20532;-68
2023/03/30 08:46:53;;;;;;;26.42;3.30;;;;;;;-142.75;100.00;76050.66;5023192;28;20147;-68
2023/03/30 08:49:20;;;;;;;32.83;4.63;;;;;;;-142.75;100.00;76027.03;5027633;28;20514;-68
2023/03/30 08:51:49;;;;;;;23.70;3.88;;;;;;;-142.75;100.00;76011.28;5021476;28;20040;-67
2023/03/30 08:54:17;;;;;;;33.13;4.47;;;;;;;-142.75;100.00;76017.19;5030293;28;20021;-67
2023/03/30 08:56:53;;;;;;;25.63;3.67;;;;;;;-142.75;100.00;76038.84;5028981;28;20045;-69
2023/03/30 08:59:21;;;;;;;21.38;3.20;;;;;;;-142.75;100.00;76040.81;5030236;28;20548;-69
2023/03/30 09:02:05;;;;;;;18.98;3.65;;;;;;;-142.75;100.00;76027.03;5029486;28;20041;-68
2023/03/30 09:04:56;;;;;;;28.80;4.22;;;;;;;-142.75;100.00;76029.00;5029475;28;20034;-68
2023/03/30 09:07:43;;;;;;;21.60;3.10;;;;;;;-142.75;100.00;76036.88;5030752;28;20028;-67
2023/03/30 09:10:14;;;;;;;21.27;3.25;;;;;;;-142.75;100.00;76019.16;5028239;28;20057;-67
2023/03/30 09:12:44;;;;;;;26.17;2.97;;;;;;;-142.75;100.00;76030.97;5029221;28;20021;-68
2023/03/30 09:15:12;;;;;;;24.08;3.45;;;;;;;-142.75;100.00;76023.09;5028226;28;20026;-67
2023/03/30 09:17:55;;;;;;;27.15;5.38;;;;;;;-142.75;100.00;75983.72;5030375;28;20048;-67
2023/03/30 09:20:25;;;;;;;17.17;3.33;;;;;;;-142.75;100.00;75967.97;5029968;28;20025;-69
2023/03/30 09:22:52;;;;;;;24.95;3.40;;;;;;;-142.75;100.00;76005.38;5029345;28;20544;-66
2023/03/30 09:25:26;;;;;;;29.38;4.75;;;;;;;-142.75;100.00;76036.88;5030988;28;20029;-66
2023/03/30 09:27:55;;;;;;;23.95;3.75;;;;;;;-142.75;100.00;76029.00;5033991;28;20041;-67
2023/03/30 09:30:30;;;;;;;27.17;4.03;;;;;;;-142.75;100.00;76013.25;5030136;28;20489;-69
2023/03/30 09:33:05;;;;;;;31.38;4.28;;;;;;;-142.75;100.00;75954.22;5031941;28;20040;-68
2023/03/30 09:35:40;;;;;;;24.35;3.58;;;;;;;-142.75;100.00;75954.22;5032980;28;20033;-68
2023/03/30 09:38:09;;;;;;;24.88;3.53;;;;;;;-142.75;100.00;75964.03;5034303;28;20104;-68
2023/03/30 09:41:03;;;;;;;23.40;3.35;;;;;;;-142.75;100.00;75906.97;5034428;28;20411;-68
2023/03/30 09:43:42;;;;;;;22.35;3.53;;;;;;;-142.75;100.00;75877.44;5033147;28;20025;-68
2023/03/30 09:46:08;;;;;;;23.85;3.30;;;;;;;-142.75;100.00;75849.91;5034129;28;20083;-68
2023/03/30 09:48:44;;;;;;;27.30;3.97;;;;;;;-142.75;100.00;75883.34;5034208;28;20021;-69
2023/03/30 09:51:26;;;;;;;19.58;3.78;;;;;;;-142.75;100.00;75942.41;5034072;28;20040;-66
2023/03/30 09:54:01;;;;;;;17.73;3.17;;;;;;;-142.75;100.00;75952.25;5034453;28;20029;-68
2023/03/30 09:56:27;;;;;;;24.00;3.30;;;;;;;-142.75;100.00;75942.41;5034050;28;20021;-68
2023/03/30 09:58:54;;;;;;;25.60;3.42;;;;;;;-142.75;100.00;75936.50;5034117;28;20036;-68
2023/03/30 10:01:20;;;;;;;26.25;3.42;;;;;;;-142.75;100.00;75877.44;5033950;28;20021;-67
2023/03/30 10:04:08;;;;;;;21.20;3.20;;;;;;;-142.75;100.00;75887.28;5032804;28;20500;-69
2023/03/30 10:06:43;;;;;;;24.20;3.42;;;;;;;-142.75;100.00;75828.25;5034014;28;20036;-68
2023/03/30 10:09:11;;;;;;;23.17;3.15;;;;;;;-142.75;100.00;75855.81;5033741;28;20163;-67
2023/03/30 10:11:48;;;;;;;19.60;3.40;;;;;;;-142.75;100.00;75885.31;5032603;28;20029;-67
2023/03/30 10:14:27;;;;;;;28.27;4.38;;;;;;;-142.75;100.00;75794.78;5032521;28;20580;-67
2023/03/30 10:16:53;;;;;;;23.63;3.75;;;;;;;-142.75;100.00;75781.00;5030973;28;20037;-65
2023/03/30 10:19:20;;;;;;;21.58;2.92;;;;;;;-142.75;100.00;75775.09;5031976;28;20396;-65
2023/03/30 10:21:46;;;;;;;25.20;3.70;;;;;;;-142.75;100.00;75800.69;5031217;28;20029;-64
2023/03/30 10:24:17;;;;;;;25.02;3.70;;;;;;;-142.75;100.00;75847.94;5032055;28;20515;-65
2023/03/30 10:26:49;;;;;;;19.35;2.83;;;;;;;-142.75;100.00;75798.72;5034197;28;20079;-67
2023/03/30 10:29:17;;;;;;;21.55;3.00;;;;;;;-142.75;100.00;75800.69;5033466;28;20107;-67
2023/03/30 10:31:47;;;;;;;17.73;3.25;;;;;;;-142.75;100.00;75773.13;5032738;28;20021;-67
2023/03/30 10:34:19;;;;;;;24.83;3.63;;;;;;;-142.75;100.00;75885.31;5032840;28;20029;-67
2023/03/30 10:36:47;;;;;;;13.27;2.75;;;;;;;-142.75;100.00;75928.63;5033261;28;20536;-67
2023/03/30 10:39:26;;;;;;;16.80;3.03;;;;;;;-142.75;100.00;76027.03;5031984;28;20071;-68
2023/03/30 10:41:53;;;;;;;20.00;2.78;;;;;;;-142.75;100.00;76060.50;5032648;28;20449;-68
2023/03/30 10:44:32;;;;;;;17.40;2.72;;;;;;;-142.75;100.00;76009.31;5030957;28;20032;-67
2023/03/30 10:47:16;;;;;;;21.55;2.60;;;;;;;-142.75;100.00;76054.59;5032675;28;20511;-67
2023/03/30 10:50:04;;;;;;;21.38;2.72;;;;;;;-142.75;100.00;76023.09;5031244;28;20032;-67
2023/03/30 10:52:36;;;;;;;23.05;3.03;;;;;;;-142.75;100.00;75960.13;5031132;28;20057;-67
2023/03/30 10:55:14;;;;;;;24.55;3.20;;;;;;;-142.75;100.00;75950.28;5031157;28;20029;-66
2023/03/30 10:58:20;;;;;;;21.83;3.25;;;;;;;-142.75;100.00;75920.75;5032602;28;20025;-68
2023/03/30 11:00:48;;;;;;;21.02;3.33;;;;;;;-142.75;100.00;75938.47;5017297;28;20124;-68
2023/03/30 11:03:19;;;;;;;12.68;2.22;;;;;;;-142.75;100.00;75987.66;5030753;28;20530;-66
2023/03/30 11:05:51;;;;;;;19.85;3.60;;;;;;;-142.75;100.00;76025.06;5032107;28;20029;-65
2023/03/30 11:08:33;;;;;;;12.73;2.65;;;;;;;-142.75;100.00;76019.16;5032703;28;20075;-67
2023/03/30 11:10:59;;;;;;;19.50;3.22;;;;;;;-142.75;100.00;76021.13;5032745;28;20032;-66
2023/03/30 11:13:29;;;;;;;16.13;2.72;;;;;;;-142.75;100.00;76060.50;5032262;28;20025;-68
2023/03/30 11:16:15;;;;;;;12.45;2.85;;;;;;;-142.75;100.00;76048.69;5032182;28;20025;-67